Time;durP1;ratioP1;P1;durP2;ratioP2;P2;SDS_P1;SDS_P2;PMS_P1;PMS_P2;Temp;Humidity;BMP_temperature;BMP_pressure;BME280_temperature;BME280_humidity;BME280_pressure;Samples;Min_cycle;Max_cycle;Signal;HPM_P1;HPM_P2
2022/08/05 00:02:04;;;;;;;9.45;4.63;;;;;;;24.16;50.40;101043.19;4841363;29;20041;-56
2022/08/05 00:04:30;;;;;;;19.15;4.60;;;;;;;24.08;51.56;101046.56;4834782;29;20956;-56
2022/08/05 00:06:56;;;;;;;10.45;4.72;;;;;;;24.12;50.58;101038.59;4830608;29;20034;-56
2022/08/05 00:09:22;;;;;;;10.10;4.13;;;;;;;23.64;50.99;101033.09;4826631;29;20031;-57
2022/08/05 00:11:49;;;;;;;12.90;5.18;;;;;;;23.68;51.78;101034.97;4821928;29;20041;-57
2022/08/05 00:14:16;;;;;;;11.85;4.82;;;;;;;23.36;51.90;101038.25;4824743;29;20030;-56
2022/08/05 00:16:42;;;;;;;16.02;5.15;;;;;;;23.35;53.73;101033.09;4836318;29;20022;-57
2022/08/05 00:19:08;;;;;;;13.90;5.05;;;;;;;23.32;53.40;101026.28;4822494;29;20034;-56
2022/08/05 00:21:34;;;;;;;14.80;4.80;;;;;;;23.57;53.39;101027.13;4823203;29;20118;-56
2022/08/05 00:24:01;;;;;;;9.85;5.18;;;;;;;23.42;52.76;101019.91;4823002;29;20035;-56
2022/08/05 00:26:27;;;;;;;13.82;5.07;;;;;;;22.99;52.78;101016.19;4822907;29;20440;-56
2022/08/05 00:28:53;;;;;;;16.33;4.75;;;;;;;22.67;54.00;101022.91;4823017;29;20030;-56
2022/08/05 00:31:19;;;;;;;11.75;5.13;;;;;;;22.54;54.39;101020.78;4822631;29;20049;-57
2022/08/05 00:33:46;;;;;;;12.55;5.75;;;;;;;22.50;55.02;101022.47;4823283;29;20034;-58
2022/08/05 00:36:13;;;;;;;15.98;5.28;;;;;;;22.60;55.03;101003.31;4823224;29;20037;-58
2022/08/05 00:38:39;;;;;;;12.35;4.68;;;;;;;22.56;54.74;101013.97;4822794;29;20022;-59
2022/08/05 00:41:06;;;;;;;13.40;4.90;;;;;;;22.47;55.29;101020.31;4822701;29;20034;-58
2022/08/05 00:43:35;;;;;;;12.75;5.13;;;;;;;22.19;55.47;101013.63;4838098;29;20032;-57
2022/08/05 00:46:02;;;;;;;15.57;5.38;;;;;;;21.85;56.71;101023.25;4840545;29;20037;-56
2022/08/05 00:48:28;;;;;;;15.07;5.32;;;;;;;21.87;56.91;101026.50;4831968;29;20108;-58
2022/08/05 00:50:55;;;;;;;10.85;5.65;;;;;;;21.63;57.24;101019.22;4827250;29;20094;-58
2022/08/05 00:53:22;;;;;;;13.55;5.25;;;;;;;21.74;56.98;101018.91;4840783;29;20030;-59
2022/08/05 00:55:50;;;;;;;13.52;6.00;;;;;;;21.63;58.02;101009.13;4837729;29;20106;-58
2022/08/05 00:58:17;;;;;;;14.30;4.90;;;;;;;21.59;57.47;101014.31;4840355;29;20098;-58
2022/08/05 01:00:44;;;;;;;11.65;5.05;;;;;;;21.77;57.57;101025.72;4828897;29;20037;-65
2022/08/05 01:03:11;;;;;;;10.80;4.97;;;;;;;21.72;57.07;101020.28;4824865;29;20099;-56
2022/08/05 01:05:38;;;;;;;14.55;5.57;;;;;;;21.88;57.98;101030.06;4818162;29;20651;-59
2022/08/05 01:08:05;;;;;;;13.27;5.00;;;;;;;21.76;57.69;101024.88;4826053;29;20110;-57
2022/08/05 01:10:42;;;;;;;16.75;5.78;;;;;;;22.03;57.32;101019.09;4827101;29;20053;-59
2022/08/05 01:13:32;;;;;;;11.48;5.07;;;;;;;22.16;56.91;101016.91;4824187;29;20046;-58
2022/08/05 01:16:01;;;;;;;14.45;5.30;;;;;;;21.88;57.77;101028.16;4817942;29;20042;-58
2022/08/05 01:18:42;;;;;;;17.17;5.70;;;;;;;21.74;57.91;101029.81;4823976;29;20113;-57
2022/08/05 01:21:50;;;;;;;13.40;5.45;;;;;;;21.57;58.33;101041.00;4823628;29;20064;-57
2022/08/05 01:24:34;;;;;;;14.88;5.55;;;;;;;21.39;59.14;101043.50;4838082;29;20484;-57
2022/08/05 01:27:24;;;;;;;17.60;5.50;;;;;;;21.20;59.63;101041.25;4816814;29;20026;-57
2022/08/05 01:29:57;;;;;;;112.38;13.40;;;;;;;21.25;59.76;101041.25;4834594;29;20061;-57
2022/08/05 01:32:29;;;;;;;38.45;8.20;;;;;;;21.11;60.61;101047.53;4831958;29;20046;-57
2022/08/05 01:35:15;;;;;;;16.90;5.53;;;;;;;21.05;60.71;101046.72;4843658;29;20055;-57
2022/08/05 01:37:57;;;;;;;20.05;5.70;;;;;;;21.01;60.34;101046.44;4832072;29;20037;-58
2022/08/05 01:40:28;;;;;;;16.63;5.97;;;;;;;20.94;60.66;101040.44;4843507;29;20046;-57
2022/08/05 01:42:57;;;;;;;13.55;5.70;;;;;;;21.04;60.69;101032.28;4833021;29;20033;-57
2022/08/05 01:45:25;;;;;;;17.70;5.72;;;;;;;21.15;60.06;101022.19;4825525;29;20027;-57
2022/08/05 01:47:54;;;;;;;11.20;5.13;;;;;;;21.11;60.32;101014.88;4825533;29;20138;-57
2022/08/05 01:50:25;;;;;;;15.48;5.30;;;;;;;20.96;60.17;101023.84;4822381;29;20038;-57
2022/08/05 01:52:54;;;;;;;20.90;6.05;;;;;;;21.00;60.18;101023.03;4807063;29;20453;-57
2022/08/05 01:55:23;;;;;;;14.02;5.20;;;;;;;20.93;60.86;101025.22;4819580;29;20034;-57
2022/08/05 01:57:53;;;;;;;19.02;5.25;;;;;;;21.05;59.75;101036.66;4839632;29;20053;-57
2022/08/05 02:00:19;;;;;;;23.73;6.53;;;;;;;20.97;60.61;101034.44;4833785;29;20117;-57
2022/08/05 02:02:54;;;;;;;18.00;6.20;;;;;;;20.72;60.91;101045.31;4832344;29;20046;-57
2022/08/05 02:05:24;;;;;;;22.58;6.65;;;;;;;20.61;61.51;101047.19;4830768;29;20471;-58
2022/08/05 02:07:50;;;;;;;14.02;5.60;;;;;;;20.61;61.79;101046.38;4843832;29;20484;-57
2022/08/05 02:10:16;;;;;;;12.35;5.65;;;;;;;20.56;61.72;101044.44;4839536;29;20038;-57
2022/08/05 02:12:51;;;;;;;13.43;5.65;;;;;;;20.59;61.55;101040.34;4833158;29;20041;-57
2022/08/05 02:15:27;;;;;;;16.42;5.60;;;;;;;20.80;60.55;101042.84;4825563;29;20498;-57
2022/08/05 02:17:58;;;;;;;19.08;5.90;;;;;;;20.70;60.88;101039.28;4825363;29;20377;-57
2022/08/05 02:20:29;;;;;;;13.40;5.35;;;;;;;20.72;60.52;101040.69;4825089;29;20472;-57
2022/08/05 02:23:02;;;;;;;16.73;5.53;;;;;;;20.58;61.23;101047.69;4825389;29;20038;-57
2022/08/05 02:25:34;;;;;;;12.38;4.88;;;;;;;20.62;61.50;101046.09;4824728;29;20030;-57
2022/08/05 02:28:03;;;;;;;15.35;5.78;;;;;;;20.50;61.36;101050.94;4824898;29;20026;-57
2022/08/05 02:30:37;;;;;;;13.10;5.60;;;;;;;20.43;61.27;101051.19;4826779;29;20391;-57
2022/08/05 02:33:06;;;;;;;17.67;5.38;;;;;;;20.66;60.94;101051.81;4822338;29;20042;-57
2022/08/05 02:35:34;;;;;;;19.98;6.18;;;;;;;20.72;60.44;101053.47;4820814;29;20034;-57
2022/08/05 02:38:01;;;;;;;24.63;6.00;;;;;;;20.74;60.14;101052.09;4823911;29;20457;-57
2022/08/05 02:40:28;;;;;;;12.45;5.53;;;;;;;20.49;61.05;101052.84;4822616;29;20098;-57
2022/08/05 02:42:55;;;;;;;21.50;5.57;;;;;;;20.15;61.94;101059.72;4823768;29;20026;-57
2022/08/05 02:45:26;;;;;;;14.38;5.72;;;;;;;19.78;63.50;101047.03;4824022;29;20043;-57
2022/08/05 02:47:55;;;;;;;11.07;5.47;;;;;;;19.81;63.65;101046.50;4823121;29;20089;-57
2022/08/05 02:50:22;;;;;;;15.90;5.50;;;;;;;19.59;63.97;101043.91;4809716;29;20027;-57
2022/08/05 02:52:50;;;;;;;17.73;6.57;;;;;;;19.45;64.80;101042.72;4822857;29;20034;-57
2022/08/05 02:55:16;;;;;;;18.05;5.82;;;;;;;19.38;64.75;101055.69;4798649;29;20039;-57
2022/08/05 02:57:44;;;;;;;16.77;5.53;;;;;;;19.29;64.96;101058.03;4824345;29;20018;-57
2022/08/05 03:00:12;;;;;;;17.55;5.85;;;;;;;19.19;64.99;101055.25;4812790;29;20035;-57
2022/08/05 03:02:40;;;;;;;17.83;5.90;;;;;;;19.13;65.51;101050.84;4806118;29;20035;-57
2022/08/05 03:05:10;;;;;;;17.23;5.53;;;;;;;19.03;66.23;101050.75;4819627;29;20033;-57
2022/08/05 03:07:38;;;;;;;19.20;6.03;;;;;;;18.82;66.87;101049.72;4842504;29;20026;-57
2022/08/05 03:10:05;;;;;;;13.70;5.32;;;;;;;18.80;66.60;101046.47;4841812;29;20032;-57
2022/08/05 03:12:38;;;;;;;16.60;5.85;;;;;;;18.72;67.24;101064.84;4818741;29;20510;-57
2022/08/05 03:15:07;;;;;;;15.10;5.70;;;;;;;18.72;67.57;101058.59;4824311;29;20506;-57
2022/08/05 03:17:34;;;;;;;25.45;6.05;;;;;;;18.57;67.58;101056.50;4823777;29;20030;-57
2022/08/05 03:20:00;;;;;;;19.80;6.47;;;;;;;18.59;68.06;101058.94;4822953;29;20042;-57
2022/08/05 03:22:27;;;;;;;11.07;5.32;;;;;;;18.49;68.13;101056.94;4823846;29;20026;-57
2022/08/05 03:24:54;;;;;;;14.73;5.25;;;;;;;18.68;67.78;101055.56;4817259;29;20031;-57
2022/08/05 03:27:21;;;;;;;12.88;5.53;;;;;;;18.71;67.60;101052.34;4840783;29;20108;-57
2022/08/05 03:29:48;;;;;;;13.25;5.47;;;;;;;18.53;68.23;101051.81;4840785;29;20522;-57
2022/08/05 03:32:15;;;;;;;16.77;5.35;;;;;;;18.55;67.96;101053.22;4839223;29;20034;-57
2022/08/05 03:34:43;;;;;;;13.65;5.43;;;;;;;18.38;68.34;101053.31;4829419;29;20445;-57
2022/08/05 03:37:10;;;;;;;15.35;5.85;;;;;;;18.36;68.73;101062.75;4829433;29;20771;-57
2022/08/05 03:39:37;;;;;;;12.43;5.07;;;;;;;18.31;68.43;101059.97;4824286;29;20041;-56
2022/08/05 03:42:04;;;;;;;13.48;5.35;;;;;;;18.23;68.50;101053.09;4841802;29;20069;-57
2022/08/05 03:44:30;;;;;;;17.30;5.68;;;;;;;18.12;69.20;101057.56;4838097;29;20026;-57
2022/08/05 03:46:56;;;;;;;21.50;6.22;;;;;;;18.17;69.20;101064.94;4823480;29;20045;-56
2022/08/05 03:49:22;;;;;;;19.80;6.13;;;;;;;18.06;69.01;101068.59;4823586;29;20062;-56
2022/08/05 03:52:01;;;;;;;13.48;6.00;;;;;;;18.07;69.68;101070.22;4823294;29;20391;-57
2022/08/05 03:54:42;;;;;;;14.75;5.63;;;;;;;17.91;70.56;101072.72;4822502;29;20117;-56
2022/08/05 03:57:12;;;;;;;11.30;6.28;;;;;;;17.90;70.61;101073.78;4824050;29;20030;-57
2022/08/05 03:59:45;;;;;;;15.10;6.38;;;;;;;17.71;71.16;101082.38;4823598;29;20037;-57
2022/08/05 04:02:14;;;;;;;18.67;6.28;;;;;;;17.67;71.35;101082.88;4823290;29;20381;-57
2022/08/05 04:04:41;;;;;;;16.63;6.25;;;;;;;17.64;71.11;101086.06;4823001;29;20063;-57
2022/08/05 04:07:10;;;;;;;19.42;5.78;;;;;;;17.69;70.75;101088.88;4823437;29;20090;-57
2022/08/05 04:09:36;;;;;;;16.85;6.43;;;;;;;17.69;71.16;101094.28;4823187;29;20034;-57
2022/08/05 04:12:03;;;;;;;14.77;5.53;;;;;;;17.70;71.17;101097.81;4823927;29;20590;-57
2022/08/05 04:14:30;;;;;;;16.77;5.15;;;;;;;17.75;70.94;101105.22;4822877;29;20479;-56
2022/08/05 04:16:59;;;;;;;15.18;6.38;;;;;;;17.73;70.78;101108.19;4823178;29;20037;-57
2022/08/05 04:19:26;;;;;;;11.88;5.15;;;;;;;17.67;70.61;101109.97;4821841;29;20077;-56
2022/08/05 04:21:52;;;;;;;17.90;5.72;;;;;;;17.63;71.02;101105.28;4822380;29;20027;-56
2022/08/05 04:24:19;;;;;;;18.80;5.15;;;;;;;17.61;70.93;101105.53;4820444;29;20504;-56
2022/08/05 04:26:45;;;;;;;14.30;5.03;;;;;;;17.69;70.46;101110.53;4818163;29;20034;-56
2022/08/05 04:29:11;;;;;;;16.58;5.13;;;;;;;17.67;70.70;101109.97;4841457;29;20033;-56
2022/08/05 04:31:37;;;;;;;16.30;5.85;;;;;;;17.65;70.86;101106.66;4831823;29;20026;-57
2022/08/05 04:34:03;;;;;;;15.10;5.55;;;;;;;17.42;71.85;101107.63;4823050;29;20498;-57
2022/08/05 04:36:30;;;;;;;11.60;5.10;;;;;;;17.35;71.67;101112.41;4821922;29;20403;-56
2022/08/05 04:38:56;;;;;;;19.60;6.53;;;;;;;17.40;71.77;101114.38;4822014;29;20031;-56
2022/08/05 04:41:22;;;;;;;18.13;6.43;;;;;;;17.29;72.25;101107.16;4822713;29;20065;-56
2022/08/05 04:43:48;;;;;;;14.32;5.97;;;;;;;17.32;72.05;101106.66;4822664;29;20492;-57
2022/08/05 04:46:15;;;;;;;14.13;6.13;;;;;;;17.33;72.01;101108.31;4826405;29;20427;-57
2022/08/05 04:48:41;;;;;;;16.17;6.10;;;;;;;17.23;72.63;101110.84;4840582;29;20058;-56
2022/08/05 04:51:08;;;;;;;14.60;6.45;;;;;;;17.31;72.30;101108.53;4838782;29;20034;-57
2022/08/05 04:53:34;;;;;;;15.98;7.07;;;;;;;17.27;72.77;101112.81;4840851;29;20511;-56
2022/08/05 04:56:01;;;;;;;16.70;6.32;;;;;;;17.23;72.92;101098.13;4837826;29;20134;-56
2022/08/05 04:58:27;;;;;;;19.70;6.00;;;;;;;17.23;72.83;101118.94;4822517;29;20507;-57
2022/08/05 05:00:53;;;;;;;17.60;5.82;;;;;;;17.12;73.26;101115.22;4822606;29;20030;-57
2022/08/05 05:03:20;;;;;;;14.20;5.55;;;;;;;17.17;73.09;101123.44;4822658;29;20037;-57
2022/08/05 05:05:46;;;;;;;20.55;6.80;;;;;;;17.15;73.07;101129.06;4826680;29;20033;-57
2022/08/05 05:08:13;;;;;;;22.60;6.43;;;;;;;17.25;73.00;101131.16;4835663;29;20081;-57
2022/08/05 05:10:44;;;;;;;17.15;6.68;;;;;;;17.15;73.72;101123.66;4844361;29;20041;-56
2022/08/05 05:13:12;;;;;;;15.57;5.93;;;;;;;17.22;72.92;101128.94;4825563;29;20436;-57
2022/08/05 05:15:40;;;;;;;18.85;6.50;;;;;;;17.22;72.95;101128.13;4825706;29;20063;-57
2022/08/05 05:18:07;;;;;;;12.70;4.90;;;;;;;17.29;72.65;101128.78;4825875;29;20037;-56
2022/08/05 05:20:34;;;;;;;14.05;5.15;;;;;;;17.26;72.86;101134.69;4826131;29;20598;-57
2022/08/05 05:23:05;;;;;;;15.48;6.05;;;;;;;17.33;72.54;101129.94;4825791;29;20527;-56
2022/08/05 05:25:31;;;;;;;16.30;5.82;;;;;;;17.17;73.27;101136.16;4819939;29;20038;-56
2022/08/05 05:27:58;;;;;;;15.52;5.85;;;;;;;17.14;72.92;101134.72;4807628;29;20438;-56
2022/08/05 05:30:24;;;;;;;12.48;5.00;;;;;;;17.21;72.93;101137.28;4807663;29;20030;-56
2022/08/05 05:32:50;;;;;;;12.82;5.65;;;;;;;17.14;73.23;101130.16;4807362;29;20035;-56
2022/08/05 05:35:17;;;;;;;13.60;5.93;;;;;;;17.16;73.34;101135.34;4807214;29;20030;-56
2022/08/05 05:37:51;;;;;;;11.40;5.30;;;;;;;17.08;73.57;101135.72;4813995;29;20033;-57
2022/08/05 05:40:19;;;;;;;16.58;6.35;;;;;;;17.14;73.19;101137.44;4823890;29;20188;-57
2022/08/05 05:42:46;;;;;;;18.30;6.00;;;;;;;17.20;72.95;101130.25;4828685;29;20034;-56
2022/08/05 05:45:12;;;;;;;13.82;5.50;;;;;;;17.29;72.22;101142.31;4843944;29;20037;-57
2022/08/05 05:47:39;;;;;;;13.75;5.35;;;;;;;17.32;71.64;101131.84;4838533;29;20057;-57
2022/08/05 05:50:10;;;;;;;12.88;5.38;;;;;;;17.24;71.99;101128.69;4826190;29;20038;-57
2022/08/05 05:52:38;;;;;;;11.93;5.07;;;;;;;17.35;71.33;101127.81;4824744;29;20117;-56
2022/08/05 05:55:08;;;;;;;19.88;5.70;;;;;;;17.34;71.71;101134.28;4824995;29;20485;-57
2022/08/05 05:57:35;;;;;;;13.65;5.20;;;;;;;17.21;71.92;101134.59;4824853;29;20034;-57
2022/08/05 06:00:02;;;;;;;12.55;5.45;;;;;;;17.29;72.10;101134.19;4825191;29;20113;-56
2022/08/05 06:02:28;;;;;;;14.35;5.20;;;;;;;17.30;71.82;101130.44;4824479;29;20042;-57
2022/08/05 06:04:54;;;;;;;14.32;5.40;;;;;;;17.20;71.94;101132.94;4825376;29;20027;-57
2022/08/05 06:07:21;;;;;;;14.52;5.32;;;;;;;17.19;72.12;101131.31;4839481;29;20397;-57
2022/08/05 06:09:47;;;;;;;12.27;5.43;;;;;;;17.32;72.06;101131.00;4843600;29;20041;-57
2022/08/05 06:12:13;;;;;;;10.70;5.65;;;;;;;17.29;72.00;101135.03;4832131;29;20045;-57
2022/08/05 06:14:43;;;;;;;16.38;5.63;;;;;;;17.09;72.84;101140.88;4843098;29;20460;-57
2022/08/05 06:17:12;;;;;;;11.30;5.15;;;;;;;17.11;72.67;101132.53;4828834;29;20046;-57
2022/08/05 06:19:39;;;;;;;14.52;6.10;;;;;;;17.12;72.66;101134.16;4824656;29;20404;-56
2022/08/05 06:22:07;;;;;;;15.80;5.65;;;;;;;17.30;72.08;101131.25;4832721;29;20026;-56
2022/08/05 06:24:34;;;;;;;15.15;6.07;;;;;;;17.13;72.79;101125.81;4820530;29;20421;-57
2022/08/05 06:27:01;;;;;;;9.70;4.95;;;;;;;17.07;72.94;101126.78;4817160;29;20110;-57
2022/08/05 06:29:27;;;;;;;16.05;5.88;;;;;;;17.22;72.79;101134.34;4824712;29;20062;-57
2022/08/05 06:31:54;;;;;;;14.95;5.28;;;;;;;17.16;72.84;101121.81;4827049;29;20043;-57
2022/08/05 06:34:20;;;;;;;11.70;5.53;;;;;;;17.15;72.79;101128.25;4823844;29;20031;-56
2022/08/05 06:36:46;;;;;;;10.93;5.53;;;;;;;16.98;73.29;101133.63;4824037;29;20112;-56
2022/08/05 06:39:12;;;;;;;15.50;6.18;;;;;;;16.96;73.65;101132.22;4833810;29;20429;-56
2022/08/05 06:41:38;;;;;;;14.18;5.72;;;;;;;16.98;73.46;101133.63;4836102;29;20038;-56
2022/08/05 06:44:05;;;;;;;16.10;6.30;;;;;;;16.76;74.37;101129.94;4824282;29;20034;-57
2022/08/05 06:46:31;;;;;;;18.02;5.90;;;;;;;16.83;73.74;101136.06;4827276;29;20042;-56
2022/08/05 06:48:58;;;;;;;15.50;5.53;;;;;;;16.95;73.52;101128.72;4842394;29;20523;-57
2022/08/05 06:51:24;;;;;;;13.15;5.63;;;;;;;17.01;73.06;101138.56;4838748;29;20125;-56
2022/08/05 06:53:50;;;;;;;15.35;5.63;;;;;;;16.96;73.08;101135.75;4824070;29;20034;-57
2022/08/05 06:56:18;;;;;;;13.27;5.82;;;;;;;16.99;72.98;101129.88;4826205;29;20041;-57
2022/08/05 06:58:44;;;;;;;16.38;5.97;;;;;;;17.01;72.75;101126.94;4828615;29;20022;-57
2022/08/05 07:01:10;;;;;;;25.60;6.03;;;;;;;16.87;73.81;101120.97;4842668;29;20033;-57
2022/08/05 07:03:37;;;;;;;13.98;5.53;;;;;;;16.86;73.63;101120.16;4840123;29;20182;-56
2022/08/05 07:06:03;;;;;;;12.80;5.55;;;;;;;16.82;73.73;101124.41;4842376;29;20048;-57
2022/08/05 07:08:30;;;;;;;12.82;5.68;;;;;;;16.93;73.56;101132.69;4839302;29;20033;-57
2022/08/05 07:10:56;;;;;;;12.00;5.47;;;;;;;17.04;73.14;101118.31;4824084;29;20030;-57
2022/08/05 07:18:52;;;;;;;15.90;5.90;;;;;;;17.10;72.44;101125.44;4812262;29;20048;-56
2022/08/05 07:21:18;;;;;;;17.65;6.07;;;;;;;16.87;73.45;101127.19;4842257;29;20033;-56
2022/08/05 07:23:44;;;;;;;12.27;5.15;;;;;;;16.91;73.07;101129.44;4838805;29;20402;-57
2022/08/05 07:26:10;;;;;;;16.17;5.30;;;;;;;17.05;72.19;101123.50;4823623;29;20030;-56
2022/08/05 07:28:36;;;;;;;17.50;5.63;;;;;;;17.07;72.38;101134.06;4822497;29;20105;-57
2022/08/05 07:31:03;;;;;;;16.45;5.68;;;;;;;17.06;72.81;101138.66;4823100;29;20404;-57
2022/08/05 07:33:32;;;;;;;16.42;4.95;;;;;;;17.01;73.26;101143.97;4823419;29;20099;-57
2022/08/05 07:35:58;;;;;;;12.07;5.38;;;;;;;17.14;72.38;101132.84;4839866;29;20557;-57
2022/08/05 07:38:25;;;;;;;15.55;5.00;;;;;;;17.01;72.70;101143.97;4841594;29;20030;-56
2022/08/05 07:40:51;;;;;;;13.35;5.25;;;;;;;17.12;72.14;101142.28;4838253;29;20033;-56
2022/08/05 07:43:17;;;;;;;13.52;5.03;;;;;;;17.14;72.25;101137.44;4841760;29;20034;-57
2022/08/05 07:45:44;;;;;;;17.10;5.28;;;;;;;17.18;72.13;101140.50;4826471;29;20038;-57
2022/08/05 07:48:11;;;;;;;13.93;4.53;;;;;;;17.08;72.28;101149.22;4823238;29;20046;-56
2022/08/05 07:50:37;;;;;;;13.02;4.78;;;;;;;17.26;71.69;101143.59;4835389;29;20040;-56
2022/08/05 07:53:04;;;;;;;16.88;5.40;;;;;;;17.04;72.28;101145.34;4841593;29;20048;-56
2022/08/05 07:55:30;;;;;;;11.73;5.30;;;;;;;17.10;72.14;101139.81;4830160;29;20488;-56
2022/08/05 07:57:57;;;;;;;14.38;5.55;;;;;;;17.19;71.96;101142.13;4823662;29;20113;-57
2022/08/05 08:00:24;;;;;;;22.75;6.55;;;;;;;17.22;72.00;101144.38;4822784;29;20026;-57
2022/08/05 08:02:50;;;;;;;14.20;4.68;;;;;;;17.17;72.52;101138.84;4823382;29;20046;-57
2022/08/05 08:05:17;;;;;;;13.05;5.60;;;;;;;17.11;72.54;101136.06;4830372;29;20026;-56
2022/08/05 08:07:43;;;;;;;15.05;5.22;;;;;;;17.16;72.65;101135.34;4841168;29;20081;-56
2022/08/05 08:10:09;;;;;;;11.70;5.05;;;;;;;17.26;72.36;101145.50;4832546;29;20039;-57
2022/08/05 08:12:36;;;;;;;15.32;5.63;;;;;;;17.15;72.22;101142.59;4823189;29;20034;-56
2022/08/05 08:15:02;;;;;;;21.05;5.85;;;;;;;17.28;71.76;101143.38;4826270;29;20037;-56
2022/08/05 08:17:29;;;;;;;14.85;5.35;;;;;;;17.11;72.41;101137.94;4840901;29;20034;-57
2022/08/05 08:19:55;;;;;;;17.48;5.38;;;;;;;17.14;72.41;101134.72;4839828;29;20033;-56
2022/08/05 08:22:25;;;;;;;13.20;4.43;;;;;;;17.13;72.11;101131.22;4841595;29;20049;-57
2022/08/05 08:24:52;;;;;;;10.57;4.55;;;;;;;17.12;72.13;101139.56;4830063;29;20362;-56
2022/08/05 08:27:18;;;;;;;12.23;5.10;;;;;;;17.05;72.58;101137.03;4805876;29;20042;-57
2022/08/05 08:29:45;;;;;;;14.00;5.35;;;;;;;17.17;72.39;101128.84;4832235;29;20082;-56
2022/08/05 08:32:11;;;;;;;13.45;4.90;;;;;;;17.23;72.06;101132.47;4841322;29;20037;-57
2022/08/05 08:34:37;;;;;;;11.60;4.70;;;;;;;17.09;72.33;101129.22;4839130;29;20084;-57
2022/08/05 08:37:03;;;;;;;9.63;5.13;;;;;;;17.16;72.13;101129.94;4841101;29;20041;-56
2022/08/05 08:39:29;;;;;;;17.13;5.50;;;;;;;17.08;72.54;101127.59;4838128;29;20572;-56
2022/08/05 08:41:58;;;;;;;13.75;4.93;;;;;;;17.16;72.50;101127.22;4840089;29;20037;-57
2022/08/05 08:44:27;;;;;;;17.58;4.90;;;;;;;17.13;72.61;101127.69;4838859;29;20069;-56
2022/08/05 08:46:55;;;;;;;13.02;5.13;;;;;;;17.13;72.45;101133.91;4840950;29;20495;-57
2022/08/05 08:49:23;;;;;;;15.48;5.55;;;;;;;17.11;71.81;101127.94;4838865;29;20065;-56
2022/08/05 08:52:10;;;;;;;9.13;4.57;;;;;;;17.19;71.82;101128.59;4840753;29;20037;-57
2022/08/05 08:54:37;;;;;;;10.73;4.70;;;;;;;17.21;71.46;101127.28;4832806;29;20034;-56
2022/08/05 08:57:07;;;;;;;9.00;4.28;;;;;;;17.22;71.75;101133.53;4822760;29;20590;-57
2022/08/05 08:59:35;;;;;;;14.43;4.82;;;;;;;17.19;71.39;101131.31;4826577;29;20022;-56
2022/08/05 09:02:05;;;;;;;8.80;4.90;;;;;;;17.29;71.21;101129.63;4840953;29;20123;-56
2022/08/05 09:04:36;;;;;;;12.48;5.10;;;;;;;17.25;71.53;101133.84;4839078;29;20344;-57
2022/08/05 09:07:07;;;;;;;13.38;5.28;;;;;;;17.41;70.98;101132.25;4840851;29;20122;-57
2022/08/05 09:09:34;;;;;;;14.27;5.15;;;;;;;17.18;72.14;101143.19;4837424;29;20041;-57
2022/08/05 09:12:02;;;;;;;9.77;4.53;;;;;;;17.34;71.91;101139.72;4839851;29;20242;-56
2022/08/05 09:14:31;;;;;;;13.38;5.45;;;;;;;17.33;71.69;101135.38;4838898;29;20030;-57
2022/08/05 09:16:59;;;;;;;12.32;4.97;;;;;;;17.34;71.91;101145.13;4837688;29;20094;-56
2022/08/05 09:19:25;;;;;;;10.20;4.47;;;;;;;17.32;71.77;101144.53;4838869;29;20475;-56
2022/08/05 09:21:52;;;;;;;17.42;5.72;;;;;;;17.38;71.39;101144.41;4840486;29;20060;-57
2022/08/05 09:24:18;;;;;;;13.32;4.82;;;;;;;17.36;71.17;101151.91;4833785;29;20042;-56
2022/08/05 09:26:52;;;;;;;14.80;5.05;;;;;;;17.33;71.64;101143.47;4830038;29;20026;-56
2022/08/05 09:29:19;;;;;;;12.80;5.18;;;;;;;17.44;71.32;101153.41;4840812;29;20074;-56
2022/08/05 09:32:05;;;;;;;12.90;5.30;;;;;;;17.15;72.68;101145.31;4826018;29;20523;-56
2022/08/05 09:34:53;;;;;;;13.40;5.50;;;;;;;17.18;72.79;101140.50;4822109;29;20040;-56
2022/08/05 09:37:21;;;;;;;18.92;5.20;;;;;;;17.20;72.95;101151.88;4822826;29;20383;-56
2022/08/05 09:39:47;;;;;;;15.55;5.15;;;;;;;17.12;73.08;101151.22;4830115;29;20073;-56
2022/08/05 09:42:20;;;;;;;15.20;5.32;;;;;;;17.12;73.06;101153.91;4840331;29;20052;-57
2022/08/05 09:44:48;;;;;;;11.90;5.35;;;;;;;17.11;73.07;101155.00;4831644;29;20031;-56
2022/08/05 09:47:17;;;;;;;11.48;4.90;;;;;;;17.05;73.38;101165.97;4822327;29;20041;-56
2022/08/05 09:49:45;;;;;;;11.90;4.30;;;;;;;17.03;73.07;101165.34;4828432;29;20042;-56
2022/08/05 09:52:27;;;;;;;17.58;5.50;;;;;;;16.97;73.24;101169.84;4842342;29;20030;-56
2022/08/05 09:54:56;;;;;;;22.27;5.13;;;;;;;17.14;73.04;101176.13;4834736;29;20026;-56
2022/08/05 09:57:32;;;;;;;14.43;4.60;;;;;;;16.86;73.37;101173.41;4824841;29;20437;-56
2022/08/05 10:00:08;;;;;;;10.25;5.22;;;;;;;16.94;73.01;101169.53;4824344;29;20034;-57
2022/08/05 10:02:37;;;;;;;11.15;4.22;;;;;;;16.99;73.00;101183.13;4825530;29;20030;-56
2022/08/05 10:05:06;;;;;;;9.52;4.40;;;;;;;17.02;72.97;101174.53;4824445;29;20093;-56
2022/08/05 10:07:56;;;;;;;15.93;5.07;;;;;;;16.83;73.61;101171.19;4824667;29;20030;-56
2022/08/05 10:10:24;;;;;;;9.77;5.07;;;;;;;16.97;73.38;101164.44;4832493;29;20132;-56
2022/08/05 10:12:53;;;;;;;10.70;4.60;;;;;;;17.02;72.68;101171.84;4841907;29;20038;-57
2022/08/05 10:15:33;;;;;;;12.38;4.50;;;;;;;17.01;72.51;101168.31;4842956;29;20113;-56
2022/08/05 10:18:14;;;;;;;15.60;4.05;;;;;;;16.88;73.42;101176.72;4840184;29;20631;-56
2022/08/05 10:21:04;;;;;;;17.13;4.47;;;;;;;16.82;73.16;101164.13;4806667;29;20045;-56
2022/08/05 10:23:35;;;;;;;10.70;4.22;;;;;;;16.86;73.22;101159.88;4807889;29;20048;-57
2022/08/05 10:26:04;;;;;;;14.20;4.75;;;;;;;16.70;73.76;101160.59;4806755;29;20031;-57
2022/08/05 10:28:30;;;;;;;13.07;4.97;;;;;;;16.67;73.99;101163.78;4820945;29;20036;-56
2022/08/05 10:30:58;;;;;;;10.63;5.18;;;;;;;16.68;73.73;101171.66;4824679;29;20373;-56
2022/08/05 10:33:27;;;;;;;14.07;4.63;;;;;;;16.73;73.67;101173.69;4836834;29;20038;-57
2022/08/05 10:35:55;;;;;;;12.15;4.82;;;;;;;16.74;73.76;101167.22;4842920;29;20117;-56
2022/08/05 10:38:23;;;;;;;10.50;4.78;;;;;;;16.75;73.60;101174.25;4829000;29;20184;-56
2022/08/05 10:40:50;;;;;;;9.65;3.83;;;;;;;16.69;73.69;101170.59;4824359;29;20038;-57
2022/08/05 10:43:35;;;;;;;9.40;4.15;;;;;;;16.72;73.82;101182.84;4832591;29;20034;-56
2022/08/05 10:46:05;;;;;;;8.87;4.43;;;;;;;16.70;73.28;101179.53;4843164;29;20041;-57
2022/08/05 10:48:41;;;;;;;10.50;4.30;;;;;;;16.75;73.25;101179.66;4840522;29;20053;-56
2022/08/05 10:51:13;;;;;;;10.20;4.93;;;;;;;16.70;73.53;101179.53;4842434;29;20491;-57
2022/08/05 10:53:54;;;;;;;10.32;4.32;;;;;;;16.71;73.70;101181.19;4840520;29;20038;-57
2022/08/05 10:56:25;;;;;;;8.73;4.03;;;;;;;16.73;73.30;101179.09;4840489;29;20094;-56
2022/08/05 10:58:54;;;;;;;12.32;4.88;;;;;;;16.74;73.71;101186.13;4842570;29;20447;-56
2022/08/05 11:01:35;;;;;;;10.75;4.35;;;;;;;16.75;73.78;101187.78;4840157;29;20088;-56
2022/08/05 11:04:04;;;;;;;13.80;4.38;;;;;;;16.71;73.68;101183.91;4842657;29;20036;-56
2022/08/05 11:06:31;;;;;;;8.05;4.45;;;;;;;16.74;73.42;101186.13;4827328;29;20373;-57
2022/08/05 11:09:18;;;;;;;11.38;4.57;;;;;;;16.66;73.80;101186.47;4824330;29;20391;-56
2022/08/05 11:11:46;;;;;;;11.13;4.85;;;;;;;16.56;73.84;101185.19;4838006;29;20125;-57
2022/08/05 11:14:21;;;;;;;13.73;4.80;;;;;;;16.54;74.21;101187.28;4842092;29;20408;-56
2022/08/05 11:17:25;;;;;;;11.15;5.22;;;;;;;16.56;74.00;101196.00;4836803;29;20066;-57
2022/08/05 11:19:56;;;;;;;14.05;4.85;;;;;;;16.58;74.11;101188.47;4826999;29;20035;-56
2022/08/05 11:22:43;;;;;;;10.20;4.72;;;;;;;16.75;73.72;101190.47;4823628;29;20037;-56
2022/08/05 11:25:42;;;;;;;9.55;5.00;;;;;;;16.87;72.91;101189.38;4822443;29;20449;-56
2022/08/05 11:28:11;;;;;;;13.35;5.15;;;;;;;16.64;73.50;101192.94;4823125;29;20042;-56
2022/08/05 11:30:56;;;;;;;13.38;5.03;;;;;;;16.65;74.04;101188.34;4834256;29;20030;-57
2022/08/05 11:33:34;;;;;;;12.38;4.40;;;;;;;16.75;73.44;101201.28;4827557;29;20106;-56